G24MA EGHQ-EGHH
Flight info
| Callsign | G24MA |
|---|---|
| Flight time | 1h 10m |
| Altitude | 5000 |
| Route | DAWLY DCT BRIPO DCT GIBSO |
| Aircraft | C172/L-SFG/C |
Departure
| Time | 2026-05-05 18:56 |
|---|---|
| Airport | Cornwall Airport Newquay (EGHQ) |
Arrival
| Time | 2026-05-05 20:06 |
|---|---|
| Airport | Bournemouth Airport (EGHH) |
| Time | Latitude | Longitude | Altitude | Speed | Heading |
|---|---|---|---|---|---|
| 2026-05-05 18:36 | 50.44429 | -4.99762 | 343 ft | 0 kts | 156° |
| 2026-05-05 18:38 | 50.44441 | -4.99712 | 344 ft | 0 kts | 156° |
| 2026-05-05 18:47 | 50.44440 | -4.99712 | 344 ft | 1 kts | 155° |
| 2026-05-05 18:47 | 50.44426 | -4.99731 | 343 ft | 0 kts | 253° |
| 2026-05-05 18:48 | 50.44425 | -4.99733 | 343 ft | 0 kts | 256° |
| 2026-05-05 18:48 | 50.44425 | -4.99734 | 343 ft | 0 kts | 257° |
| 2026-05-05 18:48 | 50.44424 | -4.99737 | 343 ft | 2 kts | 233° |
| 2026-05-05 18:49 | 50.44402 | -4.99794 | 342 ft | 7 kts | 246° |
| 2026-05-05 18:49 | 50.44373 | -4.99787 | 342 ft | 4 kts | 114° |
| 2026-05-05 18:49 | 50.44358 | -4.99745 | 343 ft | 9 kts | 118° |
| 2026-05-05 18:49 | 50.44309 | -4.99622 | 346 ft | 12 kts | 120° |
| 2026-05-05 18:50 | 50.44276 | -4.99524 | 349 ft | 8 kts | 118° |
| 2026-05-05 18:50 | 50.44234 | -4.99486 | 350 ft | 8 kts | 179° |
| 2026-05-05 18:50 | 50.44168 | -4.99492 | 350 ft | 1 kts | 184° |
| 2026-05-05 18:53 | 50.44127 | -4.99493 | 350 ft | 9 kts | 188° |
| 2026-05-05 18:53 | 50.44068 | -4.99518 | 350 ft | 8 kts | 257° |
| 2026-05-05 18:54 | 50.44089 | -4.99566 | 349 ft | 0 kts | 298° |
| 2026-05-05 18:54 | 50.44090 | -4.99570 | 349 ft | 3 kts | 300° |
| 2026-05-05 18:55 | 50.44169 | -4.99785 | 344 ft | 51 kts | 303° |
| 2026-05-05 18:55 | 50.44395 | -5.00406 | 446 ft | 72 kts | 301° |
| 2026-05-05 18:55 | 50.44616 | -5.01131 | 633 ft | 73 kts | 308° |
| 2026-05-05 18:55 | 50.45018 | -5.01527 | 823 ft | 69 kts | 351° |
| 2026-05-05 18:56 | 50.45467 | -5.01310 | 991 ft | 76 kts | 33° |
| 2026-05-05 18:56 | 50.45727 | -5.00515 | 1172 ft | 89 kts | 69° |
| 2026-05-05 18:56 | 50.45822 | -4.99536 | 1312 ft | 92 kts | 74° |
| 2026-05-05 18:56 | 50.45917 | -4.98545 | 1468 ft | 91 kts | 66° |
| 2026-05-05 18:57 | 50.46095 | -4.97593 | 1606 ft | 91 kts | 66° |
| 2026-05-05 18:57 | 50.46246 | -4.96617 | 1750 ft | 91 kts | 68° |
| 2026-05-05 18:57 | 50.46368 | -4.95650 | 1888 ft | 91 kts | 70° |
| 2026-05-05 18:57 | 50.46474 | -4.94669 | 2025 ft | 91 kts | 71° |
| 2026-05-05 18:58 | 50.46571 | -4.93677 | 2167 ft | 91 kts | 72° |
| 2026-05-05 18:58 | 50.46659 | -4.92701 | 2310 ft | 91 kts | 72° |
| 2026-05-05 18:58 | 50.46743 | -4.91728 | 2457 ft | 90 kts | 72° |
| 2026-05-05 18:58 | 50.46826 | -4.90743 | 2611 ft | 90 kts | 72° |
| 2026-05-05 18:59 | 50.46906 | -4.89773 | 2754 ft | 90 kts | 73° |
| 2026-05-05 18:59 | 50.46984 | -4.88806 | 2898 ft | 89 kts | 73° |
| 2026-05-05 18:59 | 50.47062 | -4.87841 | 3044 ft | 89 kts | 73° |
| 2026-05-05 18:59 | 50.47140 | -4.86868 | 3189 ft | 89 kts | 73° |
| 2026-05-05 19:00 | 50.47217 | -4.85908 | 3337 ft | 89 kts | 73° |
| 2026-05-05 19:00 | 50.47294 | -4.84933 | 3488 ft | 89 kts | 73° |
| 2026-05-05 19:00 | 50.47371 | -4.83970 | 3641 ft | 89 kts | 73° |
| 2026-05-05 19:00 | 50.47448 | -4.83008 | 3791 ft | 89 kts | 73° |
| 2026-05-05 19:01 | 50.47527 | -4.82028 | 3947 ft | 92 kts | 73° |
| 2026-05-05 19:01 | 50.47609 | -4.81016 | 4098 ft | 95 kts | 74° |
| 2026-05-05 19:01 | 50.47691 | -4.79972 | 4249 ft | 96 kts | 75° |
| 2026-05-05 19:01 | 50.47772 | -4.78927 | 4403 ft | 97 kts | 75° |
| 2026-05-05 19:02 | 50.47854 | -4.77874 | 4555 ft | 98 kts | 75° |
| 2026-05-05 19:02 | 50.47937 | -4.76801 | 4707 ft | 98 kts | 75° |
| 2026-05-05 19:02 | 50.48020 | -4.75734 | 4859 ft | 98 kts | 75° |
| 2026-05-05 19:02 | 50.48104 | -4.74670 | 4969 ft | 102 kts | 76° |
| 2026-05-05 19:03 | 50.48195 | -4.73510 | 4985 ft | 109 kts | 77° |
| 2026-05-05 19:03 | 50.48287 | -4.72307 | 4986 ft | 113 kts | 77° |
| 2026-05-05 19:03 | 50.48380 | -4.71067 | 4989 ft | 114 kts | 77° |
| 2026-05-05 19:03 | 50.48474 | -4.69820 | 4984 ft | 115 kts | 77° |
| 2026-05-05 19:04 | 50.48569 | -4.68581 | 4981 ft | 115 kts | 77° |
| 2026-05-05 19:04 | 50.48665 | -4.67333 | 4980 ft | 115 kts | 77° |
| 2026-05-05 19:04 | 50.48760 | -4.66095 | 4979 ft | 114 kts | 77° |
| 2026-05-05 19:04 | 50.48857 | -4.64841 | 4976 ft | 114 kts | 77° |
| 2026-05-05 19:05 | 50.48953 | -4.63609 | 4978 ft | 114 kts | 77° |
| 2026-05-05 19:05 | 50.49048 | -4.62382 | 4982 ft | 114 kts | 77° |
| 2026-05-05 19:05 | 50.49144 | -4.61135 | 4980 ft | 114 kts | 77° |
| 2026-05-05 19:05 | 50.49239 | -4.59892 | 4977 ft | 114 kts | 77° |
| 2026-05-05 19:06 | 50.49335 | -4.58660 | 4977 ft | 114 kts | 77° |
| 2026-05-05 19:06 | 50.49430 | -4.57411 | 4977 ft | 114 kts | 77° |
| 2026-05-05 19:06 | 50.49525 | -4.56176 | 4975 ft | 115 kts | 77° |
| 2026-05-05 19:06 | 50.49621 | -4.54922 | 4974 ft | 115 kts | 77° |
| 2026-05-05 19:07 | 50.49715 | -4.53684 | 4976 ft | 114 kts | 77° |
| 2026-05-05 19:07 | 50.49779 | -4.52859 | 4975 ft | 114 kts | 77° |
| 2026-05-05 19:07 | 50.49904 | -4.51216 | 4972 ft | 114 kts | 77° |
| 2026-05-05 19:07 | 50.49999 | -4.49980 | 4972 ft | 114 kts | 77° |
| 2026-05-05 19:08 | 50.50094 | -4.48733 | 4971 ft | 114 kts | 77° |
| 2026-05-05 19:08 | 50.50187 | -4.47502 | 4973 ft | 114 kts | 78° |
| 2026-05-05 19:08 | 50.50281 | -4.46272 | 4975 ft | 114 kts | 77° |
| 2026-05-05 19:08 | 50.50375 | -4.45029 | 4974 ft | 114 kts | 77° |
| 2026-05-05 19:09 | 50.50468 | -4.43803 | 4974 ft | 114 kts | 77° |
| 2026-05-05 19:09 | 50.50561 | -4.42560 | 4975 ft | 114 kts | 77° |
| 2026-05-05 19:09 | 50.50655 | -4.41318 | 4974 ft | 114 kts | 77° |
| 2026-05-05 19:09 | 50.50748 | -4.40087 | 4974 ft | 114 kts | 77° |
| 2026-05-05 19:10 | 50.50841 | -4.38844 | 4974 ft | 114 kts | 77° |
| 2026-05-05 19:10 | 50.50935 | -4.37601 | 4972 ft | 114 kts | 77° |
| 2026-05-05 19:10 | 50.51027 | -4.36374 | 4972 ft | 114 kts | 77° |
| 2026-05-05 19:10 | 50.51119 | -4.35139 | 4971 ft | 114 kts | 77° |
| 2026-05-05 19:11 | 50.51212 | -4.33904 | 4970 ft | 114 kts | 78° |
| 2026-05-05 19:11 | 50.51305 | -4.32656 | 4970 ft | 114 kts | 78° |
| 2026-05-05 19:11 | 50.51397 | -4.31421 | 4967 ft | 114 kts | 78° |
| 2026-05-05 19:11 | 50.51489 | -4.30185 | 4965 ft | 114 kts | 78° |
| 2026-05-05 19:12 | 50.51581 | -4.28957 | 4967 ft | 114 kts | 78° |
| 2026-05-05 19:12 | 50.51674 | -4.27702 | 4970 ft | 114 kts | 78° |
| 2026-05-05 19:12 | 50.51766 | -4.26465 | 4969 ft | 115 kts | 78° |
| 2026-05-05 19:12 | 50.51857 | -4.25225 | 4970 ft | 115 kts | 78° |
| 2026-05-05 19:13 | 50.51949 | -4.23975 | 4967 ft | 115 kts | 78° |
| 2026-05-05 19:13 | 50.52040 | -4.22720 | 4964 ft | 115 kts | 79° |
| 2026-05-05 19:13 | 50.52129 | -4.21490 | 4959 ft | 114 kts | 79° |
| 2026-05-05 19:13 | 50.52219 | -4.20248 | 4958 ft | 114 kts | 79° |
| 2026-05-05 19:14 | 50.52309 | -4.19013 | 4955 ft | 114 kts | 79° |
| 2026-05-05 19:14 | 50.52398 | -4.17779 | 4960 ft | 113 kts | 79° |
| 2026-05-05 19:14 | 50.52489 | -4.16538 | 4960 ft | 114 kts | 79° |
| 2026-05-05 19:14 | 50.52578 | -4.15309 | 4960 ft | 114 kts | 79° |
| 2026-05-05 19:15 | 50.52669 | -4.14075 | 4957 ft | 114 kts | 79° |
| 2026-05-05 19:15 | 50.52760 | -4.12825 | 4957 ft | 114 kts | 79° |
| 2026-05-05 19:15 | 50.52851 | -4.11590 | 4956 ft | 114 kts | 78° |
| 2026-05-05 19:15 | 50.52940 | -4.10356 | 4957 ft | 114 kts | 79° |
| 2026-05-05 19:16 | 50.53030 | -4.09105 | 4952 ft | 115 kts | 78° |
| 2026-05-05 19:16 | 50.53119 | -4.07866 | 4948 ft | 114 kts | 79° |
| 2026-05-05 19:16 | 50.53209 | -4.06629 | 4950 ft | 114 kts | 79° |
| 2026-05-05 19:16 | 50.53300 | -4.05383 | 4953 ft | 114 kts | 79° |
| 2026-05-05 19:17 | 50.53388 | -4.04157 | 4950 ft | 114 kts | 78° |
| 2026-05-05 19:17 | 50.53475 | -4.02923 | 4945 ft | 113 kts | 79° |
| 2026-05-05 19:17 | 50.53564 | -4.01696 | 4944 ft | 113 kts | 78° |
| 2026-05-05 19:17 | 50.53654 | -4.00465 | 4943 ft | 113 kts | 79° |
| 2026-05-05 19:18 | 50.53741 | -3.99242 | 4944 ft | 113 kts | 79° |
| 2026-05-05 19:18 | 50.53830 | -3.98014 | 4946 ft | 113 kts | 79° |
| 2026-05-05 19:18 | 50.53918 | -3.96777 | 4945 ft | 114 kts | 79° |
| 2026-05-05 19:18 | 50.54007 | -3.95538 | 4948 ft | 114 kts | 79° |
| 2026-05-05 19:19 | 50.54095 | -3.94300 | 4948 ft | 114 kts | 79° |
| 2026-05-05 19:19 | 50.54184 | -3.93050 | 4947 ft | 114 kts | 79° |
| 2026-05-05 19:19 | 50.54272 | -3.91810 | 4948 ft | 115 kts | 79° |
| 2026-05-05 19:19 | 50.54359 | -3.90563 | 4951 ft | 114 kts | 79° |
| 2026-05-05 19:20 | 50.54449 | -3.89312 | 4951 ft | 114 kts | 78° |
| 2026-05-05 19:20 | 50.54534 | -3.88079 | 4952 ft | 113 kts | 78° |
| 2026-05-05 19:20 | 50.54621 | -3.86858 | 4946 ft | 113 kts | 78° |
| 2026-05-05 19:20 | 50.54707 | -3.85630 | 4956 ft | 113 kts | 79° |
| 2026-05-05 19:21 | 50.54796 | -3.84392 | 4957 ft | 113 kts | 78° |
| 2026-05-05 19:21 | 50.54882 | -3.83166 | 4946 ft | 113 kts | 78° |
| 2026-05-05 19:21 | 50.54970 | -3.81932 | 4954 ft | 114 kts | 78° |
| 2026-05-05 19:21 | 50.55056 | -3.80702 | 4950 ft | 113 kts | 79° |
| 2026-05-05 19:22 | 50.55142 | -3.79468 | 4956 ft | 113 kts | 79° |
| 2026-05-05 19:22 | 50.55228 | -3.78227 | 4954 ft | 113 kts | 79° |
| 2026-05-05 19:22 | 50.55314 | -3.77002 | 4958 ft | 113 kts | 79° |
| 2026-05-05 19:22 | 50.55400 | -3.75766 | 4958 ft | 113 kts | 79° |
| 2026-05-05 19:23 | 50.55486 | -3.74528 | 4958 ft | 113 kts | 79° |
| 2026-05-05 19:23 | 50.55571 | -3.73299 | 4958 ft | 113 kts | 79° |
| 2026-05-05 19:23 | 50.55656 | -3.72063 | 4960 ft | 113 kts | 78° |
| 2026-05-05 19:23 | 50.55742 | -3.70832 | 4958 ft | 113 kts | 78° |
| 2026-05-05 19:24 | 50.55828 | -3.69596 | 4957 ft | 113 kts | 78° |
| 2026-05-05 19:24 | 50.55912 | -3.68381 | 4958 ft | 113 kts | 79° |
| 2026-05-05 19:24 | 50.55998 | -3.67137 | 4957 ft | 113 kts | 79° |
| 2026-05-05 19:24 | 50.56082 | -3.65909 | 4957 ft | 113 kts | 79° |
| 2026-05-05 19:25 | 50.56166 | -3.64686 | 4956 ft | 113 kts | 79° |
| 2026-05-05 19:25 | 50.56250 | -3.63457 | 4954 ft | 113 kts | 79° |
| 2026-05-05 19:25 | 50.56334 | -3.62224 | 4956 ft | 113 kts | 79° |
| 2026-05-05 19:25 | 50.56418 | -3.61011 | 4957 ft | 113 kts | 79° |
| 2026-05-05 19:26 | 50.56501 | -3.59786 | 4956 ft | 113 kts | 79° |
| 2026-05-05 19:26 | 50.56586 | -3.58542 | 4955 ft | 113 kts | 79° |
| 2026-05-05 19:26 | 50.56670 | -3.57313 | 4958 ft | 113 kts | 79° |
| 2026-05-05 19:26 | 50.56754 | -3.56078 | 4959 ft | 113 kts | 79° |
| 2026-05-05 19:27 | 50.56838 | -3.54849 | 4960 ft | 113 kts | 79° |
| 2026-05-05 19:27 | 50.56921 | -3.53613 | 4960 ft | 113 kts | 79° |
| 2026-05-05 19:27 | 50.57005 | -3.52377 | 4961 ft | 113 kts | 79° |
| 2026-05-05 19:27 | 50.57087 | -3.51151 | 4959 ft | 113 kts | 79° |
| 2026-05-05 19:28 | 50.57170 | -3.49930 | 4966 ft | 113 kts | 80° |
| 2026-05-05 19:28 | 50.57252 | -3.48699 | 4952 ft | 113 kts | 79° |
| 2026-05-05 19:28 | 50.57335 | -3.47477 | 4962 ft | 113 kts | 78° |
| 2026-05-05 19:28 | 50.57445 | -3.46265 | 4959 ft | 111 kts | 71° |
| 2026-05-05 19:29 | 50.57659 | -3.45076 | 4956 ft | 112 kts | 69° |
| 2026-05-05 19:29 | 50.57879 | -3.43915 | 4953 ft | 111 kts | 68° |
| 2026-05-05 19:29 | 50.58102 | -3.42744 | 4957 ft | 111 kts | 69° |
| 2026-05-05 19:29 | 50.58324 | -3.41575 | 4961 ft | 111 kts | 68° |
| 2026-05-05 19:30 | 50.58546 | -3.40410 | 4963 ft | 112 kts | 68° |
| 2026-05-05 19:30 | 50.58769 | -3.39231 | 4951 ft | 111 kts | 69° |
| 2026-05-05 19:30 | 50.58990 | -3.38061 | 4956 ft | 111 kts | 68° |
| 2026-05-05 19:30 | 50.59210 | -3.36905 | 4956 ft | 110 kts | 68° |
| 2026-05-05 19:31 | 50.59431 | -3.35745 | 4958 ft | 111 kts | 69° |
| 2026-05-05 19:31 | 50.59649 | -3.34592 | 4952 ft | 111 kts | 69° |
| 2026-05-05 19:31 | 50.59869 | -3.33420 | 4957 ft | 110 kts | 69° |
| 2026-05-05 19:31 | 50.60090 | -3.32260 | 4959 ft | 111 kts | 69° |
| 2026-05-05 19:32 | 50.60308 | -3.31101 | 4963 ft | 111 kts | 69° |
| 2026-05-05 19:32 | 50.60530 | -3.29925 | 4958 ft | 111 kts | 69° |
| 2026-05-05 19:32 | 50.60751 | -3.28750 | 4962 ft | 111 kts | 69° |
| 2026-05-05 19:32 | 50.60973 | -3.27579 | 4959 ft | 112 kts | 69° |
| 2026-05-05 19:33 | 50.61192 | -3.26412 | 4958 ft | 111 kts | 69° |
| 2026-05-05 19:33 | 50.61411 | -3.25247 | 4953 ft | 111 kts | 69° |
| 2026-05-05 19:33 | 50.61629 | -3.24083 | 4954 ft | 111 kts | 68° |
| 2026-05-05 19:33 | 50.61852 | -3.22918 | 4960 ft | 111 kts | 69° |
| 2026-05-05 19:34 | 50.62066 | -3.21767 | 4952 ft | 110 kts | 70° |
| 2026-05-05 19:34 | 50.62284 | -3.20609 | 4949 ft | 110 kts | 69° |
| 2026-05-05 19:34 | 50.62505 | -3.19451 | 4961 ft | 110 kts | 69° |
| 2026-05-05 19:35 | 50.62938 | -3.17139 | 4954 ft | 111 kts | 68° |
| 2026-05-05 19:35 | 50.63153 | -3.15969 | 4955 ft | 111 kts | 69° |
| 2026-05-05 19:35 | 50.63372 | -3.14808 | 4957 ft | 111 kts | 69° |
| 2026-05-05 19:35 | 50.63592 | -3.13638 | 4958 ft | 111 kts | 69° |
| 2026-05-05 19:36 | 50.63812 | -3.12457 | 4957 ft | 111 kts | 69° |
| 2026-05-05 19:36 | 50.64031 | -3.11280 | 4957 ft | 111 kts | 69° |
| 2026-05-05 19:36 | 50.64248 | -3.10116 | 4954 ft | 111 kts | 69° |
| 2026-05-05 19:36 | 50.64468 | -3.08938 | 4952 ft | 111 kts | 69° |
| 2026-05-05 19:37 | 50.64685 | -3.07774 | 4953 ft | 111 kts | 69° |
| 2026-05-05 19:37 | 50.64902 | -3.06618 | 4956 ft | 111 kts | 69° |
| 2026-05-05 19:37 | 50.65118 | -3.05452 | 4955 ft | 111 kts | 69° |
| 2026-05-05 19:37 | 50.65334 | -3.04293 | 4950 ft | 110 kts | 69° |
| 2026-05-05 19:38 | 50.65553 | -3.03123 | 4954 ft | 110 kts | 69° |
| 2026-05-05 19:38 | 50.65768 | -3.01971 | 4956 ft | 110 kts | 69° |
| 2026-05-05 19:38 | 50.65982 | -3.00813 | 4960 ft | 109 kts | 69° |
| 2026-05-05 19:38 | 50.66195 | -2.99663 | 4951 ft | 110 kts | 70° |
| 2026-05-05 19:39 | 50.66413 | -2.98494 | 4954 ft | 110 kts | 69° |
| 2026-05-05 19:39 | 50.66626 | -2.97347 | 4955 ft | 110 kts | 70° |
| 2026-05-05 19:39 | 50.66841 | -2.96182 | 4957 ft | 111 kts | 69° |
| 2026-05-05 19:39 | 50.67062 | -2.95005 | 4954 ft | 111 kts | 70° |
| 2026-05-05 19:40 | 50.67276 | -2.93844 | 4983 ft | 109 kts | 69° |
| 2026-05-05 19:40 | 50.67488 | -2.92695 | 4993 ft | 110 kts | 69° |
| 2026-05-05 19:40 | 50.67699 | -2.91554 | 4992 ft | 110 kts | 69° |
| 2026-05-05 19:40 | 50.67913 | -2.90393 | 4990 ft | 110 kts | 69° |
| 2026-05-05 19:41 | 50.68127 | -2.89236 | 4987 ft | 110 kts | 70° |
| 2026-05-05 19:41 | 50.68341 | -2.88075 | 4984 ft | 110 kts | 70° |
| 2026-05-05 19:41 | 50.68556 | -2.86908 | 4979 ft | 110 kts | 70° |
| 2026-05-05 19:41 | 50.68767 | -2.85760 | 4982 ft | 110 kts | 69° |
| 2026-05-05 19:42 | 50.68982 | -2.84598 | 4982 ft | 110 kts | 69° |
| 2026-05-05 19:42 | 50.69195 | -2.83447 | 4980 ft | 110 kts | 70° |
| 2026-05-05 19:42 | 50.69407 | -2.82287 | 4979 ft | 111 kts | 69° |
| 2026-05-05 19:42 | 50.69620 | -2.81128 | 4984 ft | 110 kts | 68° |
| 2026-05-05 19:43 | 50.69836 | -2.79956 | 4973 ft | 110 kts | 70° |
| 2026-05-05 19:43 | 50.70046 | -2.78807 | 4981 ft | 110 kts | 69° |
| 2026-05-05 19:43 | 50.70260 | -2.77648 | 4981 ft | 110 kts | 69° |
| 2026-05-05 19:43 | 50.70473 | -2.76483 | 4982 ft | 109 kts | 69° |
| 2026-05-05 19:44 | 50.70686 | -2.75331 | 4979 ft | 110 kts | 69° |
| 2026-05-05 19:44 | 50.70898 | -2.74166 | 4985 ft | 110 kts | 69° |
| 2026-05-05 19:44 | 50.71110 | -2.73016 | 4982 ft | 110 kts | 68° |
| 2026-05-05 19:44 | 50.71320 | -2.71865 | 4984 ft | 109 kts | 70° |
| 2026-05-05 19:45 | 50.71531 | -2.70710 | 4975 ft | 109 kts | 69° |
| 2026-05-05 19:45 | 50.71742 | -2.69561 | 4984 ft | 108 kts | 70° |
| 2026-05-05 19:45 | 50.71951 | -2.68421 | 4985 ft | 109 kts | 70° |
| 2026-05-05 19:45 | 50.72162 | -2.67259 | 4971 ft | 109 kts | 69° |
| 2026-05-05 19:46 | 50.72370 | -2.66118 | 4974 ft | 108 kts | 69° |
| 2026-05-05 19:46 | 50.72578 | -2.64968 | 4970 ft | 108 kts | 69° |
| 2026-05-05 19:46 | 50.72788 | -2.63831 | 4982 ft | 108 kts | 69° |
| 2026-05-05 19:46 | 50.72909 | -2.62651 | 4988 ft | 112 kts | 86° |
| 2026-05-05 19:47 | 50.72865 | -2.61421 | 4979 ft | 112 kts | 90° |
| 2026-05-05 19:47 | 50.72810 | -2.60204 | 4980 ft | 111 kts | 88° |
| 2026-05-05 19:47 | 50.72747 | -2.58985 | 4984 ft | 112 kts | 90° |
| 2026-05-05 19:47 | 50.72685 | -2.57775 | 4971 ft | 106 kts | 90° |
| 2026-05-05 19:48 | 50.72620 | -2.56628 | 4840 ft | 106 kts | 89° |
| 2026-05-05 19:48 | 50.72555 | -2.55474 | 4722 ft | 105 kts | 88° |
| 2026-05-05 19:48 | 50.72509 | -2.54326 | 4593 ft | 104 kts | 85° |
| 2026-05-05 19:48 | 50.72501 | -2.53186 | 4453 ft | 104 kts | 84° |
| 2026-05-05 19:49 | 50.72496 | -2.52050 | 4319 ft | 104 kts | 84° |
| 2026-05-05 19:49 | 50.72492 | -2.51281 | 4232 ft | 104 kts | 84° |
| 2026-05-05 19:49 | 50.72479 | -2.49769 | 4061 ft | 104 kts | 84° |
| 2026-05-05 19:49 | 50.72466 | -2.48621 | 3931 ft | 104 kts | 84° |
| 2026-05-05 19:50 | 50.72452 | -2.47477 | 3801 ft | 104 kts | 84° |
| 2026-05-05 19:50 | 50.72436 | -2.46334 | 3671 ft | 104 kts | 84° |
| 2026-05-05 19:50 | 50.72421 | -2.45194 | 3543 ft | 104 kts | 84° |
| 2026-05-05 19:50 | 50.72404 | -2.44061 | 3415 ft | 104 kts | 84° |
| 2026-05-05 19:51 | 50.72385 | -2.42915 | 3286 ft | 103 kts | 84° |
| 2026-05-05 19:51 | 50.72363 | -2.41796 | 3174 ft | 102 kts | 84° |
| 2026-05-05 19:51 | 50.72335 | -2.40697 | 3093 ft | 99 kts | 84° |
| 2026-05-05 19:51 | 50.72303 | -2.39609 | 3013 ft | 99 kts | 84° |
| 2026-05-05 19:52 | 50.72269 | -2.38532 | 2974 ft | 96 kts | 84° |
| 2026-05-05 19:52 | 50.72230 | -2.37505 | 2972 ft | 93 kts | 84° |
| 2026-05-05 19:52 | 50.72189 | -2.36487 | 2969 ft | 92 kts | 84° |
| 2026-05-05 19:52 | 50.72147 | -2.35481 | 2968 ft | 91 kts | 84° |
| 2026-05-05 19:53 | 50.72107 | -2.34479 | 2968 ft | 91 kts | 85° |
| 2026-05-05 19:53 | 50.72070 | -2.33480 | 2971 ft | 91 kts | 84° |
| 2026-05-05 19:53 | 50.72034 | -2.32470 | 2970 ft | 91 kts | 84° |
| 2026-05-05 19:53 | 50.71995 | -2.31470 | 2970 ft | 91 kts | 84° |
| 2026-05-05 19:54 | 50.71953 | -2.30483 | 2969 ft | 91 kts | 84° |
| 2026-05-05 19:54 | 50.71908 | -2.29489 | 2967 ft | 90 kts | 84° |
| 2026-05-05 19:54 | 50.71863 | -2.28474 | 2969 ft | 97 kts | 84° |
| 2026-05-05 19:54 | 50.71815 | -2.27367 | 2969 ft | 106 kts | 88° |
| 2026-05-05 19:55 | 50.71707 | -2.26177 | 2968 ft | 110 kts | 90° |
| 2026-05-05 19:55 | 50.71587 | -2.24991 | 2967 ft | 111 kts | 91° |
| 2026-05-05 19:55 | 50.71451 | -2.23770 | 2965 ft | 111 kts | 89° |
| 2026-05-05 19:55 | 50.71537 | -2.22620 | 2966 ft | 103 kts | 73° |
| 2026-05-05 19:56 | 50.71696 | -2.21558 | 2968 ft | 97 kts | 69° |
| 2026-05-05 19:56 | 50.71867 | -2.20531 | 2968 ft | 96 kts | 68° |
| 2026-05-05 19:56 | 50.72041 | -2.19514 | 2968 ft | 95 kts | 68° |
| 2026-05-05 19:56 | 50.72212 | -2.18505 | 2970 ft | 94 kts | 68° |
| 2026-05-05 19:57 | 50.72381 | -2.17513 | 2973 ft | 94 kts | 68° |
| 2026-05-05 19:57 | 50.72496 | -2.16843 | 2975 ft | 94 kts | 68° |
| 2026-05-05 19:57 | 50.72718 | -2.15536 | 2978 ft | 93 kts | 68° |
| 2026-05-05 19:57 | 50.72889 | -2.14540 | 2979 ft | 93 kts | 68° |
| 2026-05-05 19:58 | 50.73056 | -2.13562 | 2978 ft | 93 kts | 68° |
| 2026-05-05 19:58 | 50.73168 | -2.12905 | 2977 ft | 93 kts | 68° |
| 2026-05-05 19:58 | 50.73393 | -2.11585 | 2975 ft | 93 kts | 68° |
| 2026-05-05 19:58 | 50.73559 | -2.10612 | 2976 ft | 93 kts | 68° |
| 2026-05-05 19:59 | 50.73728 | -2.09620 | 2976 ft | 93 kts | 68° |
| 2026-05-05 19:59 | 50.73895 | -2.08635 | 2976 ft | 93 kts | 68° |
| 2026-05-05 19:59 | 50.74071 | -2.07610 | 2888 ft | 100 kts | 68° |
| 2026-05-05 19:59 | 50.74252 | -2.06529 | 2774 ft | 102 kts | 69° |
| 2026-05-05 20:00 | 50.74433 | -2.05446 | 2648 ft | 103 kts | 69° |
| 2026-05-05 20:00 | 50.74608 | -2.04374 | 2512 ft | 95 kts | 68° |
| 2026-05-05 20:00 | 50.74767 | -2.03416 | 2394 ft | 89 kts | 67° |
| 2026-05-05 20:00 | 50.74926 | -2.02479 | 2280 ft | 86 kts | 66° |
| 2026-05-05 20:01 | 50.75080 | -2.01576 | 2161 ft | 85 kts | 66° |
| 2026-05-05 20:01 | 50.75234 | -2.00678 | 2047 ft | 85 kts | 66° |
| 2026-05-05 20:01 | 50.75387 | -1.99778 | 1932 ft | 84 kts | 65° |
| 2026-05-05 20:01 | 50.75541 | -1.98880 | 1819 ft | 84 kts | 66° |
| 2026-05-05 20:02 | 50.75693 | -1.97978 | 1700 ft | 84 kts | 66° |
| 2026-05-05 20:02 | 50.75845 | -1.97089 | 1586 ft | 84 kts | 67° |
| 2026-05-05 20:02 | 50.75996 | -1.96205 | 1484 ft | 85 kts | 67° |
| 2026-05-05 20:02 | 50.76150 | -1.95293 | 1371 ft | 86 kts | 68° |
| 2026-05-05 20:03 | 50.76305 | -1.94378 | 1255 ft | 87 kts | 68° |
| 2026-05-05 20:03 | 50.76463 | -1.93442 | 1140 ft | 89 kts | 69° |
| 2026-05-05 20:03 | 50.76621 | -1.92496 | 1027 ft | 87 kts | 69° |
| 2026-05-05 20:03 | 50.76772 | -1.91594 | 907 ft | 83 kts | 69° |
| 2026-05-05 20:04 | 50.76920 | -1.90722 | 796 ft | 82 kts | 69° |
| 2026-05-05 20:04 | 50.77069 | -1.89841 | 681 ft | 82 kts | 70° |
| 2026-05-05 20:04 | 50.77216 | -1.88972 | 569 ft | 83 kts | 70° |
| 2026-05-05 20:04 | 50.77364 | -1.88083 | 454 ft | 84 kts | 71° |
| 2026-05-05 20:05 | 50.77505 | -1.87174 | 341 ft | 85 kts | 73° |
| 2026-05-05 20:05 | 50.77646 | -1.86272 | 227 ft | 85 kts | 71° |
| 2026-05-05 20:05 | 50.77802 | -1.85422 | 124 ft | 66 kts | 72° |
| 2026-05-05 20:05 | 50.77903 | -1.84824 | 40 ft | 50 kts | 70° |
| 2026-05-05 20:06 | 50.77983 | -1.84416 | 39 ft | 28 kts | 73° |
| 2026-05-05 20:06 | 50.78031 | -1.84149 | 38 ft | 25 kts | 72° |
| 2026-05-05 20:06 | 50.78072 | -1.83944 | 37 ft | 11 kts | 49° |
| 2026-05-05 20:06 | 50.78138 | -1.83932 | 37 ft | 9 kts | 341° |
| 2026-05-05 20:07 | 50.78191 | -1.83958 | 37 ft | 8 kts | 346° |
| 2026-05-05 20:07 | 50.78246 | -1.83980 | 37 ft | 7 kts | 343° |
| 2026-05-05 20:07 | 50.78288 | -1.84000 | 37 ft | 5 kts | 342° |
| 2026-05-05 20:07 | 50.78350 | -1.84023 | 37 ft | 12 kts | 349° |
| 2026-05-05 20:08 | 50.78377 | -1.84163 | 38 ft | 18 kts | 261° |
| 2026-05-05 20:08 | 50.78342 | -1.84368 | 38 ft | 18 kts | 252° |
| 2026-05-05 20:08 | 50.78398 | -1.84433 | 38 ft | 12 kts | 359° |
| 2026-05-05 20:08 | 50.78476 | -1.84430 | 38 ft | 10 kts | 1° |
| 2026-05-05 20:09 | 50.78538 | -1.84429 | 38 ft | 7 kts | 356° |
| 2026-05-05 20:09 | 50.78615 | -1.84440 | 38 ft | 15 kts | 353° |
| 2026-05-05 20:09 | 50.78669 | -1.84485 | 38 ft | 5 kts | 296° |
| 2026-05-05 20:09 | 50.78667 | -1.84499 | 38 ft | 0 kts | 146° |
| 2026-05-05 20:10 | 50.78665 | -1.84496 | 38 ft | 0 kts | 135° |
| 2026-05-05 20:11 | 50.78660 | -1.84488 | 38 ft | 1 kts | 131° |
| 2026-05-05 20:11 | 50.78659 | -1.84485 | 38 ft | 0 kts | 130° |